KRKR/RKR METAR and TAF weather

Enter ICAO airport designator
Station Type Date Time Source
KRKR METAR 2020/01/28 11:55 UTC NOAA

KRKR 281155Z AUTO 00000KT 10SM CLR 03/03 A2995 RMK AO2


Station Type Date Time Source
KRKR Decoded METAR 2020/01/28 11:55 UTC NOAA

Poteau, Robert S Kerr Airport, OK, United States (KRKR) 35-01-18N 094-37-17W
Jan 28, 2020 - 06:55 AM EST / 2020.01.28 1155 UTC
Wind: Calm:0
Visibility: 10 mile(s):0
Sky conditions: clear
Temperature: 37 F (3 C)
Dew Point: 37 F (3 C)
Relative Humidity: 100%
Pressure (altimeter): 29.95 in. Hg (1014 hPa)
ob: KRKR 281155Z AUTO 00000KT 10SM CLR 03/03 A2995 RMK AO2
cycle: 12

Station Type Date Time Source
KRKR TAF UTC NOAA

Error!

Example: see airport list